sensor_id;sensor_type;location;lat;lon;timestamp;P1;durP1;ratioP1;P2;durP2;ratioP2
73697;SDS011;62004;42.566;23.164;2023-04-24T00:01:12;8.33;;;4.77;;
73697;SDS011;62004;42.566;23.164;2023-04-24T00:03:38;8.07;;;4.43;;
73697;SDS011;62004;42.566;23.164;2023-04-24T00:06:04;5.00;;;4.20;;
73697;SDS011;62004;42.566;23.164;2023-04-24T00:08:30;4.57;;;3.78;;
73697;SDS011;62004;42.566;23.164;2023-04-24T00:10:55;6.03;;;4.03;;
73697;SDS011;62004;42.566;23.164;2023-04-24T00:13:20;5.67;;;4.13;;
73697;SDS011;62004;42.566;23.164;2023-04-24T00:15:46;5.23;;;4.17;;
73697;SDS011;62004;42.566;23.164;2023-04-24T00:18:11;4.43;;;3.90;;
73697;SDS011;62004;42.566;23.164;2023-04-24T00:20:36;4.83;;;4.23;;
73697;SDS011;62004;42.566;23.164;2023-04-24T00:23:02;6.18;;;4.15;;
73697;SDS011;62004;42.566;23.164;2023-04-24T00:25:27;5.43;;;4.17;;
73697;SDS011;62004;42.566;23.164;2023-04-24T00:27:52;4.37;;;3.97;;
73697;SDS011;62004;42.566;23.164;2023-04-24T00:30:18;5.87;;;4.00;;
73697;SDS011;62004;42.566;23.164;2023-04-24T00:32:43;5.00;;;4.13;;
73697;SDS011;62004;42.566;23.164;2023-04-24T00:35:08;6.47;;;4.07;;
73697;SDS011;62004;42.566;23.164;2023-04-24T00:37:33;5.63;;;4.03;;
73697;SDS011;62004;42.566;23.164;2023-04-24T00:39:59;4.35;;;3.83;;
73697;SDS011;62004;42.566;23.164;2023-04-24T00:42:25;8.03;;;3.87;;
73697;SDS011;62004;42.566;23.164;2023-04-24T00:44:50;6.38;;;4.55;;
73697;SDS011;62004;42.566;23.164;2023-04-24T00:47:16;5.55;;;4.20;;
73697;SDS011;62004;42.566;23.164;2023-04-24T00:49:41;5.00;;;4.25;;
73697;SDS011;62004;42.566;23.164;2023-04-24T00:52:06;5.80;;;4.03;;
73697;SDS011;62004;42.566;23.164;2023-04-24T00:54:34;4.97;;;3.75;;
73697;SDS011;62004;42.566;23.164;2023-04-24T00:56:59;4.35;;;3.95;;
73697;SDS011;62004;42.566;23.164;2023-04-24T00:59:26;6.40;;;4.20;;
73697;SDS011;62004;42.566;23.164;2023-04-24T01:01:51;5.57;;;4.37;;
73697;SDS011;62004;42.566;23.164;2023-04-24T01:04:16;4.30;;;3.90;;
73697;SDS011;62004;42.566;23.164;2023-04-24T01:06:42;7.68;;;4.53;;
73697;SDS011;62004;42.566;23.164;2023-04-24T01:09:08;5.63;;;3.60;;
73697;SDS011;62004;42.566;23.164;2023-04-24T01:11:34;5.75;;;4.60;;
73697;SDS011;62004;42.566;23.164;2023-04-24T01:13:59;6.27;;;3.97;;
73697;SDS011;62004;42.566;23.164;2023-04-24T01:16:24;6.20;;;4.80;;
73697;SDS011;62004;42.566;23.164;2023-04-24T01:18:50;6.70;;;4.40;;
73697;SDS011;62004;42.566;23.164;2023-04-24T01:21:16;4.85;;;4.03;;
73697;SDS011;62004;42.566;23.164;2023-04-24T01:23:43;8.15;;;4.40;;
73697;SDS011;62004;42.566;23.164;2023-04-24T01:26:08;5.68;;;4.32;;
73697;SDS011;62004;42.566;23.164;2023-04-24T01:28:33;5.00;;;4.27;;
73697;SDS011;62004;42.566;23.164;2023-04-24T01:30:59;6.07;;;4.75;;
73697;SDS011;62004;42.566;23.164;2023-04-24T01:33:24;5.22;;;4.72;;
73697;SDS011;62004;42.566;23.164;2023-04-24T01:35:50;5.82;;;4.50;;
73697;SDS011;62004;42.566;23.164;2023-04-24T01:38:15;4.82;;;4.22;;
73697;SDS011;62004;42.566;23.164;2023-04-24T01:40:41;5.70;;;4.40;;
73697;SDS011;62004;42.566;23.164;2023-04-24T01:43:06;4.30;;;3.37;;
73697;SDS011;62004;42.566;23.164;2023-04-24T01:45:31;5.30;;;4.10;;
73697;SDS011;62004;42.566;23.164;2023-04-24T01:47:57;8.50;;;4.73;;
73697;SDS011;62004;42.566;23.164;2023-04-24T01:50:22;4.90;;;4.23;;
73697;SDS011;62004;42.566;23.164;2023-04-24T01:52:47;5.05;;;4.55;;
73697;SDS011;62004;42.566;23.164;2023-04-24T01:55:13;4.18;;;3.55;;
73697;SDS011;62004;42.566;23.164;2023-04-24T01:57:38;4.97;;;4.47;;
73697;SDS011;62004;42.566;23.164;2023-04-24T02:00:03;4.28;;;3.88;;
73697;SDS011;62004;42.566;23.164;2023-04-24T02:02:29;4.72;;;4.32;;
73697;SDS011;62004;42.566;23.164;2023-04-24T02:04:55;7.13;;;4.60;;
73697;SDS011;62004;42.566;23.164;2023-04-24T02:07:20;4.90;;;4.43;;
73697;SDS011;62004;42.566;23.164;2023-04-24T02:09:45;4.47;;;4.03;;
73697;SDS011;62004;42.566;23.164;2023-04-24T02:12:11;5.97;;;4.43;;
73697;SDS011;62004;42.566;23.164;2023-04-24T02:14:36;5.03;;;3.77;;
73697;SDS011;62004;42.566;23.164;2023-04-24T02:17:01;5.60;;;4.28;;
73697;SDS011;62004;42.566;23.164;2023-04-24T02:19:27;5.60;;;5.00;;
73697;SDS011;62004;42.566;23.164;2023-04-24T02:21:52;5.13;;;3.67;;
73697;SDS011;62004;42.566;23.164;2023-04-24T02:24:17;5.33;;;3.80;;
73697;SDS011;62004;42.566;23.164;2023-04-24T02:26:42;3.87;;;3.17;;
73697;SDS011;62004;42.566;23.164;2023-04-24T02:29:07;4.90;;;4.40;;
73697;SDS011;62004;42.566;23.164;2023-04-24T02:31:33;4.23;;;3.83;;
73697;SDS011;62004;42.566;23.164;2023-04-24T02:33:58;5.82;;;4.20;;
73697;SDS011;62004;42.566;23.164;2023-04-24T02:36:24;5.63;;;4.57;;
73697;SDS011;62004;42.566;23.164;2023-04-24T02:38:49;5.93;;;4.40;;
73697;SDS011;62004;42.566;23.164;2023-04-24T02:41:15;5.57;;;3.93;;
73697;SDS011;62004;42.566;23.164;2023-04-24T02:43:40;4.90;;;4.17;;
73697;SDS011;62004;42.566;23.164;2023-04-24T02:46:05;4.73;;;4.33;;
73697;SDS011;62004;42.566;23.164;2023-04-24T02:48:30;5.73;;;4.60;;
73697;SDS011;62004;42.566;23.164;2023-04-24T02:50:56;5.23;;;3.50;;
73697;SDS011;62004;42.566;23.164;2023-04-24T02:53:22;6.88;;;3.83;;
73697;SDS011;62004;42.566;23.164;2023-04-24T02:55:48;7.00;;;3.95;;
73697;SDS011;62004;42.566;23.164;2023-04-24T02:58:13;4.47;;;4.07;;
73697;SDS011;62004;42.566;23.164;2023-04-24T03:00:39;4.97;;;3.53;;
73697;SDS011;62004;42.566;23.164;2023-04-24T03:03:04;5.47;;;4.10;;
73697;SDS011;62004;42.566;23.164;2023-04-24T03:05:30;5.75;;;4.47;;
73697;SDS011;62004;42.566;23.164;2023-04-24T03:07:56;5.25;;;4.00;;
73697;SDS011;62004;42.566;23.164;2023-04-24T03:10:21;6.72;;;4.35;;
73697;SDS011;62004;42.566;23.164;2023-04-24T03:12:47;4.70;;;3.85;;
73697;SDS011;62004;42.566;23.164;2023-04-24T03:15:12;6.63;;;4.13;;
73697;SDS011;62004;42.566;23.164;2023-04-24T03:17:38;5.47;;;4.17;;
73697;SDS011;62004;42.566;23.164;2023-04-24T03:20:03;5.37;;;3.13;;
73697;SDS011;62004;42.566;23.164;2023-04-24T03:22:30;6.35;;;3.75;;
73697;SDS011;62004;42.566;23.164;2023-04-24T03:24:57;3.83;;;3.45;;
73697;SDS011;62004;42.566;23.164;2023-04-24T03:27:23;4.68;;;4.20;;
73697;SDS011;62004;42.566;23.164;2023-04-24T03:29:48;3.72;;;3.42;;
73697;SDS011;62004;42.566;23.164;2023-04-24T03:32:16;4.65;;;4.00;;
73697;SDS011;62004;42.566;23.164;2023-04-24T03:34:41;4.70;;;3.93;;
73697;SDS011;62004;42.566;23.164;2023-04-24T03:37:07;6.30;;;3.83;;
73697;SDS011;62004;42.566;23.164;2023-04-24T03:39:32;5.63;;;4.23;;
73697;SDS011;62004;42.566;23.164;2023-04-24T03:41:57;4.00;;;3.43;;
73697;SDS011;62004;42.566;23.164;2023-04-24T03:44:22;4.03;;;3.60;;
73697;SDS011;62004;42.566;23.164;2023-04-24T03:46:47;4.13;;;3.57;;
73697;SDS011;62004;42.566;23.164;2023-04-24T03:49:13;4.33;;;3.93;;
73697;SDS011;62004;42.566;23.164;2023-04-24T03:51:38;3.93;;;3.60;;
73697;SDS011;62004;42.566;23.164;2023-04-24T03:54:03;4.60;;;4.13;;
73697;SDS011;62004;42.566;23.164;2023-04-24T03:56:28;4.67;;;3.80;;
73697;SDS011;62004;42.566;23.164;2023-04-24T03:58:54;4.53;;;4.13;;
73697;SDS011;62004;42.566;23.164;2023-04-24T04:01:19;4.63;;;4.22;;
73697;SDS011;62004;42.566;23.164;2023-04-24T04:03:45;6.00;;;4.82;;
73697;SDS011;62004;42.566;23.164;2023-04-24T04:06:11;3.80;;;3.40;;
73697;SDS011;62004;42.566;23.164;2023-04-24T04:08:37;4.47;;;4.07;;
73697;SDS011;62004;42.566;23.164;2023-04-24T04:11:03;5.17;;;3.90;;
73697;SDS011;62004;42.566;23.164;2023-04-24T04:13:28;4.23;;;3.67;;
73697;SDS011;62004;42.566;23.164;2023-04-24T04:15:53;5.43;;;4.45;;
73697;SDS011;62004;42.566;23.164;2023-04-24T04:18:19;4.28;;;3.88;;
73697;SDS011;62004;42.566;23.164;2023-04-24T04:20:44;4.87;;;4.47;;
73697;SDS011;62004;42.566;23.164;2023-04-24T04:23:09;4.40;;;3.87;;
73697;SDS011;62004;42.566;23.164;2023-04-24T04:25:34;3.40;;;3.10;;
73697;SDS011;62004;42.566;23.164;2023-04-24T04:28:00;4.40;;;4.00;;
73697;SDS011;62004;42.566;23.164;2023-04-24T04:30:25;4.03;;;3.63;;
73697;SDS011;62004;42.566;23.164;2023-04-24T04:32:50;4.78;;;4.38;;
73697;SDS011;62004;42.566;23.164;2023-04-24T04:35:16;3.75;;;3.42;;
73697;SDS011;62004;42.566;23.164;2023-04-24T04:37:41;4.10;;;3.70;;
73697;SDS011;62004;42.566;23.164;2023-04-24T04:40:06;5.10;;;4.07;;
73697;SDS011;62004;42.566;23.164;2023-04-24T04:42:32;5.28;;;4.43;;
73697;SDS011;62004;42.566;23.164;2023-04-24T04:44:59;4.18;;;3.70;;
73697;SDS011;62004;42.566;23.164;2023-04-24T04:47:24;7.05;;;3.97;;
73697;SDS011;62004;42.566;23.164;2023-04-24T04:49:51;4.40;;;3.83;;
73697;SDS011;62004;42.566;23.164;2023-04-24T04:52:17;4.65;;;4.22;;
73697;SDS011;62004;42.566;23.164;2023-04-24T04:54:42;4.47;;;3.70;;
73697;SDS011;62004;42.566;23.164;2023-04-24T04:57:07;5.18;;;4.68;;
73697;SDS011;62004;42.566;23.164;2023-04-24T04:59:33;6.17;;;4.30;;
73697;SDS011;62004;42.566;23.164;2023-04-24T05:01:58;5.43;;;4.20;;
73697;SDS011;62004;42.566;23.164;2023-04-24T05:04:23;8.83;;;5.07;;
73697;SDS011;62004;42.566;23.164;2023-04-24T05:06:48;5.27;;;4.50;;
73697;SDS011;62004;42.566;23.164;2023-04-24T05:09:16;6.25;;;4.22;;
73697;SDS011;62004;42.566;23.164;2023-04-24T05:11:41;7.45;;;4.00;;
73697;SDS011;62004;42.566;23.164;2023-04-24T05:14:06;5.32;;;4.15;;
73697;SDS011;62004;42.566;23.164;2023-04-24T05:16:31;6.80;;;3.90;;
73697;SDS011;62004;42.566;23.164;2023-04-24T05:18:57;4.40;;;4.03;;
73697;SDS011;62004;42.566;23.164;2023-04-24T05:21:22;9.93;;;3.97;;
73697;SDS011;62004;42.566;23.164;2023-04-24T05:23:47;9.73;;;4.87;;
73697;SDS011;62004;42.566;23.164;2023-04-24T05:26:13;6.33;;;4.07;;
73697;SDS011;62004;42.566;23.164;2023-04-24T05:28:39;8.07;;;5.18;;
73697;SDS011;62004;42.566;23.164;2023-04-24T05:31:05;8.35;;;4.70;;
73697;SDS011;62004;42.566;23.164;2023-04-24T05:33:30;7.68;;;4.47;;
73697;SDS011;62004;42.566;23.164;2023-04-24T05:35:55;11.40;;;5.75;;
73697;SDS011;62004;42.566;23.164;2023-04-24T05:38:21;7.20;;;4.10;;
73697;SDS011;62004;42.566;23.164;2023-04-24T05:40:46;6.63;;;4.93;;
73697;SDS011;62004;42.566;23.164;2023-04-24T05:43:11;6.37;;;4.83;;
73697;SDS011;62004;42.566;23.164;2023-04-24T05:45:37;6.57;;;4.47;;
73697;SDS011;62004;42.566;23.164;2023-04-24T05:48:03;4.38;;;3.92;;
73697;SDS011;62004;42.566;23.164;2023-04-24T05:50:28;5.93;;;4.50;;
73697;SDS011;62004;42.566;23.164;2023-04-24T05:52:53;5.83;;;4.60;;
73697;SDS011;62004;42.566;23.164;2023-04-24T05:55:19;7.70;;;4.10;;
73697;SDS011;62004;42.566;23.164;2023-04-24T05:57:44;8.10;;;4.82;;
73697;SDS011;62004;42.566;23.164;2023-04-24T06:00:09;5.73;;;4.63;;
73697;SDS011;62004;42.566;23.164;2023-04-24T06:02:37;4.55;;;4.15;;
73697;SDS011;62004;42.566;23.164;2023-04-24T06:05:02;4.22;;;3.50;;
73697;SDS011;62004;42.566;23.164;2023-04-24T06:07:27;6.50;;;4.95;;
73697;SDS011;62004;42.566;23.164;2023-04-24T06:09:53;4.00;;;3.60;;
73697;SDS011;62004;42.566;23.164;2023-04-24T06:12:18;5.70;;;4.03;;
73697;SDS011;62004;42.566;23.164;2023-04-24T06:14:43;4.67;;;4.23;;
73697;SDS011;62004;42.566;23.164;2023-04-24T06:17:08;6.28;;;3.80;;
73697;SDS011;62004;42.566;23.164;2023-04-24T06:19:34;4.43;;;4.00;;
73697;SDS011;62004;42.566;23.164;2023-04-24T06:21:59;4.53;;;4.00;;
73697;SDS011;62004;42.566;23.164;2023-04-24T06:24:28;12.37;;;3.93;;
73697;SDS011;62004;42.566;23.164;2023-04-24T06:26:53;8.43;;;4.43;;
73697;SDS011;62004;42.566;23.164;2023-04-24T06:29:19;5.82;;;4.72;;
73697;SDS011;62004;42.566;23.164;2023-04-24T06:31:44;5.13;;;4.50;;
73697;SDS011;62004;42.566;23.164;2023-04-24T06:34:09;5.10;;;4.35;;
73697;SDS011;62004;42.566;23.164;2023-04-24T06:36:35;5.53;;;4.03;;
73697;SDS011;62004;42.566;23.164;2023-04-24T06:39:00;4.93;;;4.40;;
73697;SDS011;62004;42.566;23.164;2023-04-24T06:41:25;5.40;;;4.75;;
73697;SDS011;62004;42.566;23.164;2023-04-24T06:43:51;3.83;;;3.45;;
73697;SDS011;62004;42.566;23.164;2023-04-24T06:46:16;4.50;;;3.67;;
73697;SDS011;62004;42.566;23.164;2023-04-24T06:48:41;4.82;;;3.85;;
73697;SDS011;62004;42.566;23.164;2023-04-24T06:51:07;5.63;;;4.60;;
73697;SDS011;62004;42.566;23.164;2023-04-24T06:53:32;4.88;;;4.20;;
73697;SDS011;62004;42.566;23.164;2023-04-24T06:55:58;6.03;;;3.92;;
73697;SDS011;62004;42.566;23.164;2023-04-24T06:58:24;5.17;;;4.53;;
73697;SDS011;62004;42.566;23.164;2023-04-24T07:00:49;4.70;;;3.92;;
73697;SDS011;62004;42.566;23.164;2023-04-24T07:03:15;4.13;;;3.70;;
73697;SDS011;62004;42.566;23.164;2023-04-24T07:05:40;5.28;;;3.83;;
73697;SDS011;62004;42.566;23.164;2023-04-24T07:08:06;6.28;;;3.60;;
73697;SDS011;62004;42.566;23.164;2023-04-24T07:10:32;4.45;;;3.67;;
73697;SDS011;62004;42.566;23.164;2023-04-24T07:12:59;4.40;;;3.53;;
73697;SDS011;62004;42.566;23.164;2023-04-24T07:15:24;5.90;;;3.55;;
73697;SDS011;62004;42.566;23.164;2023-04-24T07:17:49;4.95;;;3.33;;
73697;SDS011;62004;42.566;23.164;2023-04-24T07:20:15;4.95;;;3.75;;
73697;SDS011;62004;42.566;23.164;2023-04-24T07:22:40;6.32;;;3.30;;
73697;SDS011;62004;42.566;23.164;2023-04-24T07:25:06;4.05;;;3.40;;
73697;SDS011;62004;42.566;23.164;2023-04-24T07:27:32;5.55;;;3.45;;
73697;SDS011;62004;42.566;23.164;2023-04-24T07:29:57;5.00;;;3.63;;
73697;SDS011;62004;42.566;23.164;2023-04-24T07:32:23;6.20;;;4.80;;
73697;SDS011;62004;42.566;23.164;2023-04-24T07:34:48;4.23;;;3.83;;
73697;SDS011;62004;42.566;23.164;2023-04-24T07:37:13;6.10;;;3.50;;
73697;SDS011;62004;42.566;23.164;2023-04-24T07:39:38;4.20;;;3.80;;
73697;SDS011;62004;42.566;23.164;2023-04-24T07:42:04;4.13;;;3.73;;
73697;SDS011;62004;42.566;23.164;2023-04-24T07:44:29;5.80;;;3.83;;
73697;SDS011;62004;42.566;23.164;2023-04-24T07:46:54;4.83;;;3.27;;
73697;SDS011;62004;42.566;23.164;2023-04-24T07:49:20;5.30;;;4.35;;
73697;SDS011;62004;42.566;23.164;2023-04-24T07:51:45;6.00;;;4.20;;
73697;SDS011;62004;42.566;23.164;2023-04-24T07:54:11;5.33;;;3.53;;
73697;SDS011;62004;42.566;23.164;2023-04-24T07:56:36;6.00;;;3.72;;
73697;SDS011;62004;42.566;23.164;2023-04-24T07:59:04;4.35;;;3.95;;
73697;SDS011;62004;42.566;23.164;2023-04-24T08:01:29;5.18;;;3.90;;
73697;SDS011;62004;42.566;23.164;2023-04-24T08:03:54;4.05;;;3.63;;
73697;SDS011;62004;42.566;23.164;2023-04-24T08:06:20;3.72;;;3.38;;
73697;SDS011;62004;42.566;23.164;2023-04-24T08:08:45;4.20;;;3.87;;
73697;SDS011;62004;42.566;23.164;2023-04-24T08:11:11;6.65;;;4.35;;
73697;SDS011;62004;42.566;23.164;2023-04-24T08:13:36;7.57;;;4.27;;
73697;SDS011;62004;42.566;23.164;2023-04-24T08:16:01;8.50;;;4.60;;
73697;SDS011;62004;42.566;23.164;2023-04-24T08:18:27;5.93;;;3.90;;
73697;SDS011;62004;42.566;23.164;2023-04-24T08:20:52;4.40;;;4.00;;
73697;SDS011;62004;42.566;23.164;2023-04-24T08:23:17;4.23;;;3.93;;
73697;SDS011;62004;42.566;23.164;2023-04-24T08:25:42;3.97;;;3.65;;
73697;SDS011;62004;42.566;23.164;2023-04-24T08:28:08;5.63;;;4.20;;
73697;SDS011;62004;42.566;23.164;2023-04-24T08:30:33;4.90;;;3.63;;
73697;SDS011;62004;42.566;23.164;2023-04-24T08:32:59;4.75;;;4.35;;
73697;SDS011;62004;42.566;23.164;2023-04-24T08:35:24;6.75;;;4.40;;
73697;SDS011;62004;42.566;23.164;2023-04-24T08:37:50;4.72;;;3.58;;
73697;SDS011;62004;42.566;23.164;2023-04-24T08:40:15;8.67;;;3.80;;
73697;SDS011;62004;42.566;23.164;2023-04-24T08:42:41;4.57;;;4.03;;
73697;SDS011;62004;42.566;23.164;2023-04-24T08:45:07;3.40;;;3.10;;
73697;SDS011;62004;42.566;23.164;2023-04-24T08:47:32;7.20;;;3.67;;
73697;SDS011;62004;42.566;23.164;2023-04-24T08:49:58;4.13;;;3.50;;
73697;SDS011;62004;42.566;23.164;2023-04-24T08:52:27;4.63;;;3.17;;
73697;SDS011;62004;42.566;23.164;2023-04-24T08:54:53;4.07;;;3.40;;
73697;SDS011;62004;42.566;23.164;2023-04-24T08:57:19;3.65;;;3.17;;
73697;SDS011;62004;42.566;23.164;2023-04-24T08:59:44;5.40;;;3.20;;
73697;SDS011;62004;42.566;23.164;2023-04-24T09:02:10;4.20;;;3.28;;
73697;SDS011;62004;42.566;23.164;2023-04-24T09:04:36;7.38;;;3.25;;
73697;SDS011;62004;42.566;23.164;2023-04-24T09:07:02;5.80;;;3.50;;
73697;SDS011;62004;42.566;23.164;2023-04-24T09:09:28;7.22;;;3.65;;
73697;SDS011;62004;42.566;23.164;2023-04-24T09:11:54;4.78;;;2.88;;
73697;SDS011;62004;42.566;23.164;2023-04-24T09:14:20;6.63;;;3.85;;
73697;SDS011;62004;42.566;23.164;2023-04-24T09:16:46;3.55;;;3.25;;
73697;SDS011;62004;42.566;23.164;2023-04-24T09:19:11;4.22;;;2.97;;
73697;SDS011;62004;42.566;23.164;2023-04-24T09:21:37;4.78;;;3.38;;
73697;SDS011;62004;42.566;23.164;2023-04-24T09:24:06;6.95;;;4.53;;
73697;SDS011;62004;42.566;23.164;2023-04-24T09:26:33;4.07;;;2.80;;
73697;SDS011;62004;42.566;23.164;2023-04-24T09:28:59;5.45;;;3.08;;
73697;SDS011;62004;42.566;23.164;2023-04-24T09:31:26;3.13;;;2.78;;
73697;SDS011;62004;42.566;23.164;2023-04-24T09:34:02;4.18;;;3.22;;
73697;SDS011;62004;42.566;23.164;2023-04-24T09:36:37;5.63;;;3.03;;
73697;SDS011;62004;42.566;23.164;2023-04-24T09:39:04;5.80;;;2.88;;
73697;SDS011;62004;42.566;23.164;2023-04-24T09:41:31;5.28;;;3.22;;
73697;SDS011;62004;42.566;23.164;2023-04-24T09:43:56;4.80;;;2.83;;
73697;SDS011;62004;42.566;23.164;2023-04-24T09:46:28;3.33;;;3.00;;
73697;SDS011;62004;42.566;23.164;2023-04-24T09:48:54;3.40;;;3.10;;
73697;SDS011;62004;42.566;23.164;2023-04-24T09:51:19;5.77;;;2.87;;
73697;SDS011;62004;42.566;23.164;2023-04-24T09:53:57;5.07;;;3.15;;
73697;SDS011;62004;42.566;23.164;2023-04-24T09:56:22;4.37;;;3.33;;
73697;SDS011;62004;42.566;23.164;2023-04-24T09:58:50;3.63;;;3.15;;
73697;SDS011;62004;42.566;23.164;2023-04-24T10:01:15;3.00;;;2.60;;
73697;SDS011;62004;42.566;23.164;2023-04-24T10:03:41;5.07;;;3.33;;
73697;SDS011;62004;42.566;23.164;2023-04-24T10:06:07;5.20;;;3.45;;
73697;SDS011;62004;42.566;23.164;2023-04-24T10:08:34;4.55;;;3.35;;
73697;SDS011;62004;42.566;23.164;2023-04-24T10:10:59;3.33;;;3.03;;
73697;SDS011;62004;42.566;23.164;2023-04-24T10:13:25;6.80;;;3.35;;
73697;SDS011;62004;42.566;23.164;2023-04-24T10:15:51;4.43;;;3.03;;
73697;SDS011;62004;42.566;23.164;2023-04-24T10:18:16;3.75;;;3.45;;
73697;SDS011;62004;42.566;23.164;2023-04-24T10:20:41;5.93;;;4.13;;
73697;SDS011;62004;42.566;23.164;2023-04-24T10:23:07;4.40;;;3.00;;
73697;SDS011;62004;42.566;23.164;2023-04-24T10:25:33;5.95;;;3.10;;
73697;SDS011;62004;42.566;23.164;2023-04-24T10:27:59;4.43;;;3.47;;
73697;SDS011;62004;42.566;23.164;2023-04-24T10:30:32;3.85;;;3.40;;
73697;SDS011;62004;42.566;23.164;2023-04-24T10:33:03;5.03;;;3.20;;
73697;SDS011;62004;42.566;23.164;2023-04-24T10:35:30;5.55;;;3.97;;
73697;SDS011;62004;42.566;23.164;2023-04-24T10:38:08;4.38;;;3.35;;
73697;SDS011;62004;42.566;23.164;2023-04-24T10:40:35;7.05;;;3.53;;
73697;SDS011;62004;42.566;23.164;2023-04-24T10:43:03;12.90;;;4.13;;
73697;SDS011;62004;42.566;23.164;2023-04-24T10:45:33;4.97;;;3.30;;
73697;SDS011;62004;42.566;23.164;2023-04-24T10:48:03;3.80;;;3.15;;
73697;SDS011;62004;42.566;23.164;2023-04-24T10:50:29;3.42;;;2.80;;
73697;SDS011;62004;42.566;23.164;2023-04-24T10:53:05;4.68;;;3.05;;
73697;SDS011;62004;42.566;23.164;2023-04-24T10:58:02;4.07;;;3.58;;
73697;SDS011;62004;42.566;23.164;2023-04-24T11:00:28;4.57;;;3.65;;
73697;SDS011;62004;42.566;23.164;2023-04-24T11:02:53;8.73;;;3.40;;
73697;SDS011;62004;42.566;23.164;2023-04-24T11:05:20;4.78;;;3.38;;
73697;SDS011;62004;42.566;23.164;2023-04-24T11:10:29;9.63;;;3.97;;
73697;SDS011;62004;42.566;23.164;2023-04-24T11:12:54;7.50;;;3.95;;
73697;SDS011;62004;42.566;23.164;2023-04-24T11:15:20;4.53;;;4.07;;
73697;SDS011;62004;42.566;23.164;2023-04-24T11:17:45;5.38;;;4.13;;
73697;SDS011;62004;42.566;23.164;2023-04-24T11:20:11;3.63;;;3.20;;
73697;SDS011;62004;42.566;23.164;2023-04-24T11:22:37;3.17;;;2.97;;
73697;SDS011;62004;42.566;23.164;2023-04-24T11:25:05;3.28;;;3.08;;
73697;SDS011;62004;42.566;23.164;2023-04-24T11:27:32;4.40;;;2.72;;
73697;SDS011;62004;42.566;23.164;2023-04-24T11:30:03;2.55;;;2.33;;
73697;SDS011;62004;42.566;23.164;2023-04-24T11:37:22;7.78;;;5.80;;
73697;SDS011;62004;42.566;23.164;2023-04-24T11:39:51;7.75;;;4.65;;
73697;SDS011;62004;42.566;23.164;2023-04-24T11:42:17;7.15;;;4.32;;
73697;SDS011;62004;42.566;23.164;2023-04-24T11:44:43;8.35;;;4.90;;
73697;SDS011;62004;42.566;23.164;2023-04-24T11:47:08;8.65;;;5.10;;
73697;SDS011;62004;42.566;23.164;2023-04-24T11:49:34;15.23;;;7.03;;
73697;SDS011;62004;42.566;23.164;2023-04-24T11:52:01;12.95;;;7.78;;
73697;SDS011;62004;42.566;23.164;2023-04-24T11:54:26;12.07;;;7.00;;
73697;SDS011;62004;42.566;23.164;2023-04-24T11:56:52;10.27;;;6.90;;
73697;SDS011;62004;42.566;23.164;2023-04-24T11:59:17;8.73;;;6.40;;
73697;SDS011;62004;42.566;23.164;2023-04-24T12:01:43;14.73;;;9.30;;
73697;SDS011;62004;42.566;23.164;2023-04-24T12:04:08;10.98;;;8.25;;
73697;SDS011;62004;42.566;23.164;2023-04-24T12:06:34;9.53;;;7.83;;
73697;SDS011;62004;42.566;23.164;2023-04-24T12:08:59;8.77;;;6.93;;
73697;SDS011;62004;42.566;23.164;2023-04-24T12:11:24;10.48;;;8.77;;
73697;SDS011;62004;42.566;23.164;2023-04-24T12:13:50;10.60;;;6.75;;
73697;SDS011;62004;42.566;23.164;2023-04-24T12:16:16;13.47;;;8.53;;
73697;SDS011;62004;42.566;23.164;2023-04-24T12:18:41;11.60;;;7.20;;
73697;SDS011;62004;42.566;23.164;2023-04-24T12:21:22;13.43;;;8.63;;
73697;SDS011;62004;42.566;23.164;2023-04-24T12:23:53;8.07;;;6.15;;
73697;SDS011;62004;42.566;23.164;2023-04-24T12:26:19;10.02;;;7.85;;
73697;SDS011;62004;42.566;23.164;2023-04-24T12:28:46;9.93;;;6.68;;
73697;SDS011;62004;42.566;23.164;2023-04-24T12:31:11;9.68;;;7.38;;
73697;SDS011;62004;42.566;23.164;2023-04-24T12:33:37;8.93;;;7.53;;
73697;SDS011;62004;42.566;23.164;2023-04-24T12:36:03;6.82;;;6.13;;
73697;SDS011;62004;42.566;23.164;2023-04-24T12:38:30;8.07;;;7.15;;
73697;SDS011;62004;42.566;23.164;2023-04-24T12:41:05;12.25;;;7.00;;
73697;SDS011;62004;42.566;23.164;2023-04-24T12:43:31;8.82;;;7.57;;
73697;SDS011;62004;42.566;23.164;2023-04-24T12:45:56;8.82;;;6.07;;
73697;SDS011;62004;42.566;23.164;2023-04-24T12:48:22;7.88;;;6.97;;
73697;SDS011;62004;42.566;23.164;2023-04-24T12:50:47;9.30;;;6.97;;
73697;SDS011;62004;42.566;23.164;2023-04-24T12:53:12;10.13;;;8.23;;
73697;SDS011;62004;42.566;23.164;2023-04-24T12:55:37;12.98;;;8.68;;
73697;SDS011;62004;42.566;23.164;2023-04-24T12:58:03;11.13;;;8.47;;
73697;SDS011;62004;42.566;23.164;2023-04-24T13:00:28;10.32;;;7.43;;
73697;SDS011;62004;42.566;23.164;2023-04-24T13:02:53;9.73;;;7.93;;
73697;SDS011;62004;42.566;23.164;2023-04-24T13:05:19;10.05;;;8.55;;
73697;SDS011;62004;42.566;23.164;2023-04-24T13:07:44;9.83;;;8.17;;
73697;SDS011;62004;42.566;23.164;2023-04-24T13:10:09;9.30;;;8.07;;
73697;SDS011;62004;42.566;23.164;2023-04-24T13:12:35;13.25;;;8.95;;
73697;SDS011;62004;42.566;23.164;2023-04-24T13:15:00;8.63;;;7.40;;
73697;SDS011;62004;42.566;23.164;2023-04-24T13:17:26;10.02;;;8.00;;
73697;SDS011;62004;42.566;23.164;2023-04-24T13:19:51;8.60;;;7.03;;
73697;SDS011;62004;42.566;23.164;2023-04-24T13:22:17;13.52;;;7.45;;
73697;SDS011;62004;42.566;23.164;2023-04-24T13:24:43;10.88;;;7.75;;
73697;SDS011;62004;42.566;23.164;2023-04-24T13:27:09;7.00;;;6.25;;
73697;SDS011;62004;42.566;23.164;2023-04-24T13:29:34;6.85;;;6.05;;
73697;SDS011;62004;42.566;23.164;2023-04-24T13:32:00;6.82;;;6.10;;
73697;SDS011;62004;42.566;23.164;2023-04-24T13:34:25;6.80;;;6.18;;
73697;SDS011;62004;42.566;23.164;2023-04-24T13:36:52;6.35;;;5.70;;
73697;SDS011;62004;42.566;23.164;2023-04-24T13:39:17;6.88;;;6.10;;
73697;SDS011;62004;42.566;23.164;2023-04-24T13:41:42;7.67;;;5.80;;
73697;SDS011;62004;42.566;23.164;2023-04-24T13:44:07;7.15;;;6.45;;
73697;SDS011;62004;42.566;23.164;2023-04-24T13:46:33;7.60;;;5.30;;
73697;SDS011;62004;42.566;23.164;2023-04-24T13:48:58;5.57;;;4.95;;
73697;SDS011;62004;42.566;23.164;2023-04-24T13:51:25;6.57;;;5.35;;
73697;SDS011;62004;42.566;23.164;2023-04-24T13:53:52;6.90;;;5.05;;
73697;SDS011;62004;42.566;23.164;2023-04-24T13:56:17;6.25;;;4.05;;
73697;SDS011;62004;42.566;23.164;2023-04-24T13:58:42;5.63;;;4.90;;
73697;SDS011;62004;42.566;23.164;2023-04-24T14:01:08;7.05;;;4.82;;
73697;SDS011;62004;42.566;23.164;2023-04-24T14:03:33;5.50;;;4.90;;
73697;SDS011;62004;42.566;23.164;2023-04-24T14:05:58;5.77;;;4.80;;
73697;SDS011;62004;42.566;23.164;2023-04-24T14:08:23;3.43;;;3.13;;
73697;SDS011;62004;42.566;23.164;2023-04-24T14:10:49;3.95;;;3.55;;
73697;SDS011;62004;42.566;23.164;2023-04-24T14:13:15;3.70;;;3.10;;
73697;SDS011;62004;42.566;23.164;2023-04-24T14:15:42;4.10;;;3.70;;
73697;SDS011;62004;42.566;23.164;2023-04-24T14:18:07;3.95;;;3.35;;
73697;SDS011;62004;42.566;23.164;2023-04-24T14:20:33;4.80;;;3.70;;
73697;SDS011;62004;42.566;23.164;2023-04-24T14:22:58;6.83;;;3.47;;
73697;SDS011;62004;42.566;23.164;2023-04-24T14:25:24;4.70;;;3.10;;
73697;SDS011;62004;42.566;23.164;2023-04-24T14:27:49;4.07;;;3.00;;
73697;SDS011;62004;42.566;23.164;2023-04-24T14:30:14;4.30;;;3.03;;
73697;SDS011;62004;42.566;23.164;2023-04-24T14:32:41;4.78;;;3.35;;
73697;SDS011;62004;42.566;23.164;2023-04-24T14:35:06;3.67;;;2.63;;